createdAt,value
2023-09-15T00:01:23.652Z,101323.47
2023-09-15T00:06:45.448Z,101335.59
2023-09-15T00:12:07.447Z,101339.19
2023-09-15T00:17:29.236Z,101340.19
2023-09-15T00:22:53.217Z,101353.28
2023-09-15T00:28:15.015Z,101348.34
2023-09-15T00:33:36.743Z,101357.84
2023-09-15T00:38:58.490Z,101356.09
2023-09-15T00:44:20.253Z,101357.88
2023-09-15T00:49:42.310Z,101365.72
2023-09-15T00:55:04.340Z,101371.28
2023-09-15T01:00:26.260Z,101372.94
2023-09-15T01:05:48.718Z,101372.13
2023-09-15T01:11:10.574Z,101380.88
2023-09-15T01:16:40.205Z,101396.72
2023-09-15T01:22:31.328Z,101399.56
2023-09-15T01:28:34.841Z,101395.31
2023-09-15T01:33:56.832Z,101398.84
2023-09-15T01:39:19.100Z,101403.28
2023-09-15T01:44:40.947Z,101396.50
2023-09-15T01:50:03.609Z,101412.84
2023-09-15T01:55:26.666Z,101417.34
2023-09-15T02:00:48.476Z,101413.25
2023-09-15T02:06:10.286Z,101404.72
2023-09-15T02:11:32.037Z,101408.31
2023-09-15T02:16:53.813Z,101409.97
2023-09-15T02:22:15.642Z,101410.78
2023-09-15T02:27:38.008Z,101404.66
2023-09-15T02:32:59.776Z,101414.41
2023-09-15T02:38:21.604Z,101419.75
2023-09-15T02:43:46.428Z,101421.72
2023-09-15T02:49:08.264Z,101429.69
2023-09-15T02:54:30.002Z,101439.38
2023-09-15T02:59:53.911Z,101443.78
2023-09-15T03:05:16.023Z,101438.78
2023-09-15T03:10:37.854Z,101445.75
2023-09-15T03:16:13.066Z,101452.88
2023-09-15T03:21:35.123Z,101450.38
2023-09-15T03:26:56.879Z,101447.06
2023-09-15T03:32:18.722Z,101464.28
2023-09-15T03:37:40.748Z,101468.69
2023-09-15T03:43:03.916Z,101471.50
2023-09-15T03:48:26.054Z,101471.56
2023-09-15T03:53:47.811Z,101476.06
2023-09-15T03:59:09.617Z,101483.78
2023-09-15T04:04:31.391Z,101491.69
2023-09-15T04:09:53.180Z,101499.44
2023-09-15T04:15:15.594Z,101498.63
2023-09-15T04:20:46.143Z,101507.22
2023-09-15T04:26:08.701Z,101508.22
2023-09-15T04:31:30.567Z,101510.75
2023-09-15T04:36:52.402Z,101517.50
2023-09-15T04:42:14.167Z,101516.47
2023-09-15T04:47:37.836Z,101515.63
2023-09-15T04:52:59.721Z,101521.53
2023-09-15T04:58:21.593Z,101519.84
2023-09-15T05:03:43.632Z,101525.56
2023-09-15T05:09:05.405Z,101528.03
2023-09-15T05:14:27.222Z,101545.94
2023-09-15T05:19:49.005Z,101539.13
2023-09-15T05:25:10.866Z,101551.69
2023-09-15T05:30:33.707Z,101556.50
2023-09-15T05:35:56.880Z,101559.66
2023-09-15T05:41:18.721Z,101567.28
2023-09-15T05:46:40.582Z,101572.22
2023-09-15T05:52:02.522Z,101573.28
2023-09-15T05:57:24.274Z,101578.31
2023-09-15T06:02:46.012Z,101574.59
2023-09-15T06:08:08.078Z,101583.00
2023-09-15T06:13:30.149Z,101583.84
2023-09-15T06:18:51.982Z,101591.44
2023-09-15T06:24:13.742Z,101581.03
2023-09-15T06:29:35.691Z,101578.22
2023-09-15T06:34:57.494Z,101586.72
2023-09-15T06:40:19.321Z,101591.72
2023-09-15T06:45:41.072Z,101592.06
2023-09-15T06:51:03.039Z,101589.94
2023-09-15T06:56:24.765Z,101582.34
2023-09-15T07:01:48.635Z,101601.34
2023-09-15T07:07:11.329Z,101619.09
2023-09-15T07:12:33.130Z,101620.31
2023-09-15T07:17:55.489Z,101615.38
2023-09-15T07:23:17.278Z,101614.78
2023-09-15T07:28:39.030Z,101621.06
2023-09-15T07:34:00.946Z,101611.25
2023-09-15T07:39:22.824Z,101613.66
2023-09-15T07:44:45.244Z,101619.25
2023-09-15T07:50:07.366Z,101619.28
2023-09-15T07:55:29.345Z,101603.56
2023-09-15T08:00:51.317Z,101610.16
2023-09-15T08:06:14.190Z,101609.03
2023-09-15T08:11:35.988Z,101605.53
2023-09-15T08:16:57.871Z,101606.75
2023-09-15T08:22:19.890Z,101601.84
2023-09-15T08:27:41.994Z,101612.91
2023-09-15T08:33:04.542Z,101608.47
2023-09-15T08:38:26.376Z,101597.59
2023-09-15T08:43:48.507Z,101604.88
2023-09-15T08:49:11.132Z,101587.66
2023-09-15T08:54:34.077Z,101587.91
2023-09-15T08:59:55.991Z,101579.38
2023-09-15T09:05:18.249Z,101576.03
2023-09-15T09:10:40.217Z,101577.53
2023-09-15T09:16:04.187Z,101576.19
2023-09-15T09:21:27.615Z,101575.50
2023-09-15T09:26:55.443Z,101573.59
2023-09-15T09:32:17.246Z,101575.88
2023-09-15T09:37:39.139Z,101572.44
2023-09-15T09:43:00.984Z,101571.31
2023-09-15T09:48:22.870Z,101552.06
2023-09-15T09:53:45.313Z,101560.84
2023-09-15T09:59:10.113Z,101566.69
2023-09-15T10:04:31.858Z,101567.09
2023-09-15T10:09:53.784Z,101564.56
2023-09-15T10:15:15.680Z,101557.97
2023-09-15T10:20:39.221Z,101563.75
2023-09-15T10:26:03.044Z,101559.84
2023-09-15T10:31:24.889Z,101547.19
2023-09-15T10:36:46.936Z,101546.75
2023-09-15T10:42:13.091Z,101550.25
2023-09-15T10:47:34.957Z,101539.69
2023-09-15T10:53:06.876Z,101535.19
2023-09-15T10:58:29.014Z,101531.75
2023-09-15T11:03:51.851Z,101533.50
2023-09-15T11:09:14.706Z,101528.81
2023-09-15T11:14:36.427Z,101525.31
2023-09-15T11:19:58.768Z,101512.97
2023-09-15T11:25:20.698Z,101510.09
2023-09-15T11:30:43.500Z,101507.00
2023-09-15T11:36:05.628Z,101497.47
2023-09-15T11:41:30.658Z,101500.31
2023-09-15T11:46:53.824Z,101489.44
2023-09-15T11:52:15.812Z,101496.63
2023-09-15T11:57:37.639Z,101491.09
2023-09-15T12:03:01.036Z,101486.88
2023-09-15T12:08:23.155Z,101477.13
2023-09-15T12:13:46.188Z,101481.06
2023-09-15T12:19:07.969Z,101473.06
2023-09-15T12:24:30.000Z,101479.47
2023-09-15T12:29:52.210Z,101463.84
2023-09-15T12:35:15.402Z,101462.47
2023-09-15T12:40:37.265Z,101466.38
2023-09-15T12:45:59.104Z,101460.75
2023-09-15T12:51:21.023Z,101445.09
2023-09-15T12:56:42.758Z,101446.94
2023-09-15T13:02:04.717Z,101446.19
2023-09-15T13:07:26.523Z,101446.88
2023-09-15T13:12:48.305Z,101445.56
2023-09-15T13:18:10.126Z,101450.50
2023-09-15T13:23:31.874Z,101433.91
2023-09-15T13:28:53.641Z,101439.13
2023-09-15T13:34:15.373Z,101441.16
2023-09-15T13:39:37.145Z,101429.25
2023-09-15T13:45:00.178Z,101438.91
2023-09-15T13:50:21.911Z,101440.69
2023-09-15T13:55:48.390Z,101440.78
2023-09-15T14:01:10.874Z,101429.00
2023-09-15T14:06:32.680Z,101425.50
2023-09-15T14:11:54.477Z,101432.63
2023-09-15T14:17:16.236Z,101425.34
2023-09-15T14:22:38.020Z,101412.59
2023-09-15T14:27:59.836Z,101430.03
2023-09-15T14:33:21.609Z,101430.34
2023-09-15T14:38:43.429Z,101418.81
2023-09-15T14:44:16.983Z,101414.72
2023-09-15T14:49:38.738Z,101419.34
2023-09-15T14:55:00.485Z,101424.47
2023-09-15T15:00:22.292Z,101431.91
2023-09-15T15:05:44.068Z,101415.81
2023-09-15T15:11:07.988Z,101412.75
2023-09-15T15:16:30.011Z,101416.66
2023-09-15T15:21:51.915Z,101416.66
2023-09-15T15:27:13.822Z,101420.66
2023-09-15T15:32:35.732Z,101414.88
2023-09-15T15:37:57.479Z,101416.25
2023-09-15T15:43:19.296Z,101415.09
2023-09-15T15:48:41.083Z,101416.69
2023-09-15T15:54:03.131Z,101423.06
2023-09-15T15:59:25.024Z,101427.91
2023-09-15T16:04:46.820Z,101435.16
2023-09-15T16:10:08.873Z,101431.44
2023-09-15T16:15:30.793Z,101430.22
2023-09-15T16:20:52.610Z,101423.31
2023-09-15T16:26:14.354Z,101424.84
2023-09-15T16:31:36.303Z,101431.84
2023-09-15T16:36:58.026Z,101427.00
2023-09-15T16:42:19.881Z,101430.94
2023-09-15T16:47:41.796Z,101443.16
2023-09-15T16:53:03.751Z,101450.66
2023-09-15T16:58:25.587Z,101451.53
2023-09-15T17:03:47.437Z,101462.28
2023-09-15T17:09:09.282Z,101470.97
2023-09-15T17:14:31.045Z,101467.41
2023-09-15T17:19:52.846Z,101477.81
2023-09-15T17:25:14.655Z,101489.88
2023-09-15T17:30:36.398Z,101488.75
2023-09-15T17:35:59.107Z,101496.81
2023-09-15T17:41:22.145Z,101507.63
2023-09-15T17:46:43.939Z,101503.31
2023-09-15T17:52:06.100Z,101514.06
2023-09-15T17:57:28.660Z,101518.28
2023-09-15T18:02:50.513Z,101514.56
2023-09-15T18:08:12.280Z,101515.13
2023-09-15T18:13:34.085Z,101508.50
2023-09-15T18:18:55.924Z,101508.38
2023-09-15T18:24:17.708Z,101516.44
2023-09-15T18:29:39.525Z,101521.50
2023-09-15T18:35:01.947Z,101515.34
2023-09-15T18:40:23.857Z,101525.41
2023-09-15T18:45:45.681Z,101531.63
2023-09-15T18:51:07.486Z,101536.44
2023-09-15T18:56:29.434Z,101529.06
2023-09-15T19:01:51.459Z,101529.53
2023-09-15T19:07:13.228Z,101533.63
2023-09-15T19:12:35.146Z,101537.56
2023-09-15T19:17:57.042Z,101546.22
2023-09-15T19:23:18.822Z,101550.94
2023-09-15T19:28:40.578Z,101559.16
2023-09-15T19:34:02.405Z,101563.06
2023-09-15T19:39:24.182Z,101559.06
2023-09-15T19:44:45.885Z,101556.03
2023-09-15T19:50:08.210Z,101558.94
2023-09-15T19:55:30.508Z,101561.75
2023-09-15T20:00:52.447Z,101561.81
2023-09-15T20:06:14.492Z,101554.94
2023-09-15T20:11:36.572Z,101573.47
2023-09-15T20:17:01.374Z,101561.84
2023-09-15T20:22:23.500Z,101561.41
2023-09-15T20:27:45.374Z,101566.63
2023-09-15T20:33:07.195Z,101574.81
2023-09-15T20:38:29.002Z,101563.31
2023-09-15T20:43:51.108Z,101570.19
2023-09-15T20:49:12.838Z,101563.38
2023-09-15T20:54:35.468Z,101567.03
2023-09-15T20:59:57.283Z,101563.88
2023-09-15T21:05:19.078Z,101548.56
2023-09-15T21:10:40.808Z,101551.38
2023-09-15T21:16:03.380Z,101566.59
2023-09-15T21:21:25.266Z,101567.50
2023-09-15T21:26:47.069Z,101570.16
2023-09-15T21:32:08.919Z,101571.75
2023-09-15T21:37:30.667Z,101574.34
2023-09-15T21:42:52.427Z,101582.09
2023-09-15T21:48:14.273Z,101569.44
2023-09-15T21:53:36.053Z,101572.38
2023-09-15T21:58:57.833Z,101575.59
2023-09-15T22:04:19.715Z,101569.53
2023-09-15T22:09:41.537Z,101579.69
2023-09-15T22:15:03.551Z,101571.88
2023-09-15T22:20:25.273Z,101571.13
2023-09-15T22:25:47.049Z,101578.66
2023-09-15T22:31:12.755Z,101579.72
2023-09-15T22:36:34.579Z,101581.97
2023-09-15T22:41:56.331Z,101575.69
2023-09-15T22:47:18.176Z,101572.94
2023-09-15T22:52:39.886Z,101571.53
2023-09-15T22:58:01.726Z,101569.03
2023-09-15T23:03:23.629Z,101560.28
2023-09-15T23:08:45.426Z,101564.31
2023-09-15T23:14:07.209Z,101567.91
2023-09-15T23:19:28.944Z,101558.59
2023-09-15T23:24:52.296Z,101554.25
2023-09-15T23:30:14.604Z,101552.97
2023-09-15T23:35:36.358Z,101553.13
2023-09-15T23:40:58.131Z,101554.25
2023-09-15T23:46:19.909Z,101555.88
2023-09-15T23:51:41.749Z,101553.53
2023-09-15T23:57:03.678Z,101564.22
